Weather, afternoon June 6, 2001 (JST)

 

2001/06/06 07:00 UTC Petropavlovsk

UHPP METAR 060700Z 16006NG10MPS 9999 SKC 07/01 Q1023 NOSIG RMK QFE 764 SC07

 

2001/06/06 01:55 UTC Eareckson/Shemya

PASY 060155Z 13010KT 10SM FEW008 OVC020 07/02 A3022 RMK SLP234 8/8// 9/8//LAST

 

2001/06/05 00:50 UTC Adak (latest is 6/5)

PADK 050050Z 24013KT 10SM FEW003 SCT020 BKN050 11/08 A3000 RMK VSBY LWR SW + NW

 

2001/06/06 07:53 UTC Fairbanks

PAFA 060753Z 00000KT 10SM FEW060 SCT120 BKN200 15/08 A2979 RMK AO2 SLP093 T01500083


Ads by TOK2